Baden Baden, Illinois
Current Conditions -  °F | °C
As of 5:23 PM on Monday 22 Dec 2014 (Local Time) from KBLV Reporting Station
Drizzle Drizzle  
Wind Chill: 45°   Ceiling: 500
Heat Index: 48°   Visibility: 9mi
Dew Point: 48°   Wind: 8mph
Humidity: 100%   Direction: 140°SE
Pressure: 29.55"   Gusts: NA
Location:  38.7728°N, 89.5031°W
Report Text: KBLV 222323Z AUTO 14007KT 9SM -DZ OVC005 09/09 A2955 RMK AO2
Loading
Personal Weather Stations






























Interactive Weather Map New forecast layout! Learn more

10-Day Weather Forecast

Advertisements
Track Severe Weather on mobile